Time;durP1;ratioP1;P1;durP2;ratioP2;P2;SDS_P1;SDS_P2;PMS_P1;PMS_P2;Temp;Humidity;BMP_temperature;BMP_pressure;BME280_temperature;BME280_humidity;BME280_pressure;Samples;Min_cycle;Max_cycle;Signal;HPM_P1;HPM_P2
2022/11/01 00:01:35;;;;;;;9.93;6.12;;;;;;;5.16;56.53;101183.81;1710647;82;21202;-71
2022/11/01 00:04:02;;;;;;;12.15;6.60;;;;;;;5.16;56.57;101180.66;1714753;82;21807;-71
2022/11/01 00:06:29;;;;;;;12.25;6.62;;;;;;;5.15;56.61;101176.38;1724355;82;21084;-71
2022/11/01 00:08:56;;;;;;;13.20;6.17;;;;;;;5.15;56.63;101171.09;1707592;82;21557;-71
2022/11/01 00:11:23;;;;;;;12.60;6.15;;;;;;;5.13;56.69;101173.63;1703728;84;21047;-71
2022/11/01 00:13:51;;;;;;;12.68;6.72;;;;;;;5.12;56.78;101173.34;1720275;82;21574;-71
2022/11/01 00:16:19;;;;;;;11.40;6.33;;;;;;;5.11;56.98;101167.23;1734279;82;21009;-71
2022/11/01 00:18:47;;;;;;;9.83;5.70;;;;;;;5.10;57.16;101165.61;1708162;82;21246;-71
2022/11/01 00:21:16;;;;;;;13.15;6.83;;;;;;;5.10;57.36;101165.61;1709374;82;20997;-72
2022/11/01 00:23:43;;;;;;;11.75;6.28;;;;;;;5.09;57.33;101164.48;1705937;83;21443;-71
2022/11/01 00:26:17;;;;;;;14.03;6.85;;;;;;;5.09;57.27;101169.27;1716186;82;20981;-71
2022/11/01 00:28:44;;;;;;;13.32;6.10;;;;;;;5.09;57.30;101165.80;1733762;82;20965;-73
2022/11/01 00:31:12;;;;;;;10.98;6.10;;;;;;;5.07;57.34;101163.38;1735240;82;20993;-71
2022/11/01 00:33:39;;;;;;;13.03;6.08;;;;;;;5.08;57.44;101161.53;1732902;82;21154;-73
2022/11/01 00:36:06;;;;;;;11.83;6.20;;;;;;;5.06;57.48;101164.89;1705904;82;21028;-71
2022/11/01 00:38:34;;;;;;;14.58;6.15;;;;;;;5.04;57.54;101165.63;1711254;82;21009;-72
2022/11/01 00:41:02;;;;;;;10.35;6.25;;;;;;;5.03;57.56;101158.67;1724875;82;21099;-71
2022/11/01 00:43:33;;;;;;;11.97;6.65;;;;;;;5.03;57.59;101158.67;1733209;82;21008;-71
2022/11/01 00:46:00;;;;;;;12.23;5.72;;;;;;;5.04;57.64;101166.95;1705513;83;21130;-71
2022/11/01 00:48:27;;;;;;;10.55;6.03;;;;;;;5.02;57.77;101165.81;1707005;82;21011;-71
2022/11/01 00:50:54;;;;;;;10.90;5.35;;;;;;;4.99;57.87;101164.89;1706894;82;21020;-72
2022/11/01 00:53:20;;;;;;;11.45;5.87;;;;;;;4.98;58.01;101169.08;1717583;82;20980;-72
2022/11/01 00:55:47;;;;;;;12.88;6.58;;;;;;;4.96;58.09;101169.27;1735335;82;21021;-72
2022/11/01 00:58:13;;;;;;;10.48;6.28;;;;;;;4.92;58.17;101172.84;1731390;82;21736;-72
2022/11/01 01:00:40;;;;;;;10.88;5.95;;;;;;;4.90;58.25;101176.22;1734830;82;20996;-72
2022/11/01 01:03:07;;;;;;;10.32;5.50;;;;;;;4.89;58.34;101180.38;1717835;82;21487;-72
2022/11/01 01:05:34;;;;;;;13.50;6.22;;;;;;;4.86;58.51;101184.75;1730737;82;20960;-72
2022/11/01 01:08:02;;;;;;;10.32;5.87;;;;;;;4.83;58.66;101178.54;1728457;82;21016;-73
2022/11/01 01:10:29;;;;;;;11.08;5.70;;;;;;;4.79;58.89;101183.42;1713376;82;21171;-72
2022/11/01 01:12:56;;;;;;;10.00;5.70;;;;;;;4.79;58.96;101180.78;1735538;82;20953;-72
2022/11/01 01:15:22;;;;;;;12.50;6.25;;;;;;;4.78;59.04;101177.84;1735494;82;21484;-72
2022/11/01 01:17:49;;;;;;;11.08;5.53;;;;;;;4.79;59.07;101178.13;1721471;82;21048;-72
2022/11/01 01:20:16;;;;;;;11.97;5.75;;;;;;;4.79;59.10;101175.48;1711883;82;21064;-72
2022/11/01 01:22:42;;;;;;;10.53;5.70;;;;;;;4.76;59.17;101173.77;1706422;84;21126;-72
2022/11/01 01:25:09;;;;;;;10.55;5.62;;;;;;;4.74;59.18;101174.45;1706811;82;21057;-72
2022/11/01 01:27:38;;;;;;;14.07;6.10;;;;;;;4.70;59.17;101174.05;1706500;82;21095;-72
2022/11/01 01:30:08;;;;;;;10.15;5.80;;;;;;;4.68;59.22;101173.46;1706988;82;21028;-71
2022/11/01 01:32:35;;;;;;;10.55;5.85;;;;;;;4.64;59.25;101170.89;1706428;84;21095;-71
2022/11/01 01:35:02;;;;;;;9.85;5.90;;;;;;;4.62;59.35;101171.11;1705949;84;21276;-71
2022/11/01 01:37:30;;;;;;;9.30;5.42;;;;;;;4.58;59.43;101167.24;1706020;82;21000;-71
2022/11/01 01:39:57;;;;;;;9.25;5.62;;;;;;;4.56;59.45;101165.81;1710127;82;21099;-71
2022/11/01 01:42:34;;;;;;;13.05;5.50;;;;;;;4.52;59.46;101166.72;1723466;82;21449;-71
2022/11/01 01:45:09;;;;;;;12.63;6.17;;;;;;;4.48;59.52;101160.73;1706065;84;21067;-72
2022/11/01 01:47:39;;;;;;;11.03;5.20;;;;;;;4.44;59.56;101167.74;1706793;82;21321;-71
2022/11/01 01:50:26;;;;;;;12.07;5.97;;;;;;;4.42;59.62;101167.12;1706146;83;21387;-72
2022/11/01 01:53:26;;;;;;;9.43;5.20;;;;;;;4.40;59.73;101173.10;1706320;84;21016;-71
2022/11/01 01:56:04;;;;;;;11.53;5.78;;;;;;;4.38;59.94;101162.44;1706020;82;21025;-72
2022/11/01 01:58:48;;;;;;;10.88;5.25;;;;;;;4.36;60.07;101162.63;1708430;82;21546;-72
2022/11/01 02:01:15;;;;;;;13.78;6.53;;;;;;;4.33;60.21;101170.15;1675843;83;21115;-71
2022/11/01 02:03:43;;;;;;;10.60;5.50;;;;;;;4.31;60.39;101166.39;1733946;82;20972;-72
2022/11/01 02:06:15;;;;;;;10.68;5.65;;;;;;;4.30;60.49;101166.06;1726309;82;21040;-71
2022/11/01 02:08:50;;;;;;;11.10;5.53;;;;;;;4.33;60.54;101169.64;1718826;82;21092;-72
2022/11/01 02:11:18;;;;;;;10.65;5.25;;;;;;;4.33;60.70;101162.22;1705979;83;21463;-72
2022/11/01 02:13:44;;;;;;;11.68;5.78;;;;;;;4.32;60.82;101165.88;1706136;82;21143;-72
2022/11/01 02:16:36;;;;;;;9.50;4.95;;;;;;;4.32;60.89;101174.62;1711627;82;21122;-72
2022/11/01 02:19:49;;;;;;;10.20;5.35;;;;;;;4.33;60.98;101176.25;1706295;84;20972;-73
2022/11/01 02:22:47;;;;;;;10.10;5.55;;;;;;;4.29;61.12;101173.70;1715446;82;21083;-72
2022/11/01 02:26:09;;;;;;;11.10;5.70;;;;;;;4.28;61.28;101188.43;1717308;82;21030;-72
2022/11/01 02:29:03;;;;;;;9.43;4.87;;;;;;;4.29;61.38;101194.05;1736195;82;21044;-71
2022/11/01 02:31:36;;;;;;;9.58;4.95;;;;;;;4.27;61.50;101195.55;1735137;82;21502;-71
2022/11/01 02:34:23;;;;;;;9.80;5.17;;;;;;;4.25;61.59;101199.44;1707360;82;20980;-72
2022/11/01 02:36:58;;;;;;;8.53;4.97;;;;;;;4.23;61.62;101193.01;1706829;82;21056;-72
2022/11/01 02:39:32;;;;;;;9.60;5.15;;;;;;;4.21;61.72;101199.83;1705457;83;20999;-72
2022/11/01 02:42:16;;;;;;;11.15;5.37;;;;;;;4.21;61.68;101197.67;1720281;82;21223;-72
2022/11/01 02:44:51;;;;;;;11.50;5.80;;;;;;;4.22;61.60;101200.64;1693797;84;21084;-71
2022/11/01 02:47:17;;;;;;;10.95;5.50;;;;;;;4.22;61.48;101203.28;1734816;82;20989;-72
2022/11/01 02:49:50;;;;;;;10.00;5.30;;;;;;;4.20;61.40;101206.63;1732290;82;21183;-71
2022/11/01 02:52:24;;;;;;;13.08;5.78;;;;;;;4.13;61.43;101207.11;1706071;84;20980;-72
2022/11/01 02:54:56;;;;;;;11.33;5.47;;;;;;;4.04;61.54;101212.26;1706420;82;21306;-72
2022/11/01 02:57:37;;;;;;;11.35;5.67;;;;;;;3.95;61.68;101210.31;1708304;83;21076;-72
2022/11/01 03:00:27;;;;;;;11.28;5.15;;;;;;;3.89;61.79;101210.59;1712424;82;21151;-72
2022/11/01 03:03:20;;;;;;;10.48;5.17;;;;;;;3.85;61.93;101213.80;1706134;82;21008;-72
2022/11/01 03:06:07;;;;;;;12.50;6.10;;;;;;;3.80;62.00;101211.75;1652993;86;21096;-72
2022/11/01 03:08:44;;;;;;;10.25;5.15;;;;;;;3.77;62.05;101217.42;1659637;85;21172;-74
2022/11/01 03:11:19;;;;;;;10.80;5.90;;;;;;;3.72;62.12;101218.03;1656439;85;21073;-73
2022/11/01 03:14:15;;;;;;;9.48;5.40;;;;;;;3.69;62.14;101214.45;1664055;85;21071;-73
2022/11/01 03:17:08;;;;;;;12.07;5.12;;;;;;;3.68;62.24;101208.84;1679548;85;20980;-72
2022/11/01 03:19:51;;;;;;;12.43;5.75;;;;;;;3.71;62.25;101216.88;1668601;85;21064;-72
2022/11/01 03:22:29;;;;;;;9.45;5.35;;;;;;;3.73;62.41;101214.36;1653846;85;21299;-72
2022/11/01 03:25:39;;;;;;;10.38;5.15;;;;;;;3.75;62.56;101214.16;1675913;85;21610;-73
2022/11/01 03:28:26;;;;;;;11.18;5.40;;;;;;;3.77;62.62;101209.50;1676049;85;21084;-72
2022/11/01 03:31:05;;;;;;;11.33;5.42;;;;;;;3.79;62.67;101206.67;1680569;85;21147;-72
2022/11/01 03:33:34;;;;;;;8.73;5.00;;;;;;;3.82;62.70;101207.58;1657750;85;21126;-72
2022/11/01 03:36:05;;;;;;;10.85;5.15;;;;;;;3.79;62.75;101210.13;1660323;85;21108;-72
2022/11/01 03:38:37;;;;;;;9.60;5.37;;;;;;;3.79;62.79;101206.67;1679141;85;21131;-72
2022/11/01 03:41:08;;;;;;;10.53;5.58;;;;;;;3.76;62.83;101209.20;1680088;85;21088;-72
2022/11/01 03:43:36;;;;;;;10.48;5.17;;;;;;;3.74;62.89;101210.70;1679020;85;21100;-72
2022/11/01 03:46:04;;;;;;;10.68;5.50;;;;;;;3.72;62.93;101202.69;1673229;85;21052;-71
2022/11/01 03:48:31;;;;;;;10.85;5.40;;;;;;;3.67;63.00;101199.29;1652936;86;21491;-72
2022/11/01 03:50:59;;;;;;;9.38;5.20;;;;;;;3.67;63.04;101206.41;1653730;85;21118;-72
2022/11/01 03:53:26;;;;;;;10.63;5.30;;;;;;;3.65;63.00;101203.13;1673905;85;21053;-72
2022/11/01 03:55:53;;;;;;;8.48;4.97;;;;;;;3.62;63.01;101204.36;1658404;85;21681;-72
2022/11/01 03:58:20;;;;;;;9.30;5.35;;;;;;;3.61;63.05;101205.86;1654395;85;21028;-72
2022/11/01 04:00:49;;;;;;;10.80;4.92;;;;;;;3.57;63.09;101209.39;1677822;85;21166;-72
2022/11/01 04:03:16;;;;;;;10.32;5.22;;;;;;;3.52;63.15;101207.83;1668416;85;20984;-73
2022/11/01 04:05:43;;;;;;;11.28;5.90;;;;;;;3.50;63.16;101213.83;1653427;85;21016;-71
2022/11/01 04:08:10;;;;;;;8.85;5.20;;;;;;;3.44;63.26;101205.36;1669706;85;21016;-71
2022/11/01 04:10:38;;;;;;;11.68;5.42;;;;;;;3.41;63.30;101214.47;1668583;84;21111;-72
2022/11/01 04:13:07;;;;;;;10.55;5.78;;;;;;;3.37;63.33;101222.48;1667395;84;21136;-72
2022/11/01 04:21:12;;;;;;;10.85;5.15;;;;;;;3.25;63.49;101217.41;1685882;84;21538;-72
2022/11/01 04:23:39;;;;;;;9.98;5.15;;;;;;;3.22;63.62;101218.60;1670452;84;21060;-72
2022/11/01 04:26:06;;;;;;;9.03;4.83;;;;;;;3.22;63.77;101221.75;1669866;85;21072;-72
2022/11/01 04:28:33;;;;;;;10.40;5.33;;;;;;;3.24;63.99;101221.06;1668027;84;21498;-72
2022/11/01 04:30:59;;;;;;;12.07;5.60;;;;;;;3.24;64.09;101227.16;1659133;84;21027;-72
2022/11/01 04:33:26;;;;;;;9.05;4.65;;;;;;;3.26;64.13;101223.83;1725901;82;21094;-72
2022/11/01 04:35:53;;;;;;;13.20;5.75;;;;;;;3.27;64.18;101226.77;1714536;82;20961;-73
2022/11/01 04:38:20;;;;;;;10.48;5.20;;;;;;;3.31;64.24;101236.95;1707004;82;21873;-72
2022/11/01 04:40:47;;;;;;;9.13;4.97;;;;;;;3.30;64.27;101232.19;1726716;82;20995;-73
2022/11/01 04:43:15;;;;;;;12.70;6.60;;;;;;;3.30;64.30;101237.46;1708632;82;21083;-72
2022/11/01 04:45:41;;;;;;;10.10;5.67;;;;;;;3.31;64.34;101240.91;1695426;84;21574;-72
2022/11/01 04:48:17;;;;;;;10.35;6.12;;;;;;;3.31;64.43;101237.77;1706684;82;21067;-73
2022/11/01 04:50:44;;;;;;;10.90;5.92;;;;;;;3.31;64.47;101237.77;1707374;82;21264;-72
2022/11/01 04:53:11;;;;;;;12.23;6.15;;;;;;;3.32;64.47;101238.58;1705211;82;21519;-72
2022/11/01 04:55:39;;;;;;;9.88;5.50;;;;;;;3.29;64.55;101243.25;1705106;84;21083;-72
2022/11/01 04:58:06;;;;;;;9.43;5.40;;;;;;;3.27;64.55;101238.66;1726316;82;21451;-73
2022/11/01 05:00:34;;;;;;;10.95;5.62;;;;;;;3.24;64.60;101237.72;1720256;82;21171;-73
2022/11/01 05:03:07;;;;;;;11.75;5.67;;;;;;;3.23;64.64;101241.88;1733855;82;21147;-73
2022/11/01 05:05:34;;;;;;;9.73;5.78;;;;;;;3.25;64.66;101238.53;1708114;82;21531;-71
2022/11/01 05:08:06;;;;;;;12.05;5.85;;;;;;;3.25;64.69;101238.53;1707680;82;21286;-72
2022/11/01 05:10:34;;;;;;;8.18;5.25;;;;;;;3.29;64.74;101237.13;1707630;82;21052;-72
2022/11/01 05:13:01;;;;;;;12.85;8.03;;;;;;;3.33;64.75;101233.63;1705170;82;21051;-72
2022/11/01 05:15:28;;;;;;;10.35;5.83;;;;;;;3.38;64.74;101242.59;1714496;82;21417;-73
2022/11/01 05:17:54;;;;;;;10.43;5.70;;;;;;;3.41;64.74;101241.39;1705480;84;21464;-73
2022/11/01 05:20:21;;;;;;;14.60;5.78;;;;;;;3.42;64.72;101241.22;1721417;82;21009;-74
2022/11/01 05:22:49;;;;;;;9.40;5.00;;;;;;;3.43;64.75;101244.16;1709232;82;20996;-73
2022/11/01 05:25:17;;;;;;;10.75;5.12;;;;;;;3.44;64.78;101243.14;1707437;82;21138;-73
2022/11/01 05:27:44;;;;;;;10.30;5.45;;;;;;;3.47;64.80;101245.39;1726354;82;21155;-72
2022/11/01 05:30:12;;;;;;;9.88;4.87;;;;;;;3.53;64.80;101248.59;1728172;82;21020;-73
2022/11/01 05:32:39;;;;;;;10.72;5.05;;;;;;;3.56;64.83;101238.16;1717193;82;21019;-73
2022/11/01 05:35:07;;;;;;;10.88;5.60;;;;;;;3.61;64.90;101241.02;1722900;82;21083;-72
2022/11/01 05:37:35;;;;;;;10.72;6.35;;;;;;;3.65;64.90;101240.95;1731415;82;21001;-73
2022/11/01 05:40:02;;;;;;;10.05;5.95;;;;;;;3.70;64.94;101240.36;1724124;82;21718;-73
2022/11/01 05:42:29;;;;;;;10.05;5.90;;;;;;;3.75;64.89;101245.86;1723573;82;21056;-72
2022/11/01 05:44:56;;;;;;;12.47;6.60;;;;;;;3.82;64.96;101248.06;1728368;82;21558;-73
2022/11/01 05:47:23;;;;;;;12.30;6.72;;;;;;;3.89;64.92;101243.62;1735149;82;20953;-72
2022/11/01 05:49:49;;;;;;;11.45;5.25;;;;;;;4.00;64.89;101251.48;1713875;82;21035;-72
2022/11/01 05:52:17;;;;;;;10.80;5.45;;;;;;;4.10;64.80;101245.84;1721929;82;21157;-72
2022/11/01 05:54:44;;;;;;;8.95;4.08;;;;;;;4.16;64.64;101237.94;1729909;82;21111;-72
2022/11/01 05:57:10;;;;;;;10.65;5.40;;;;;;;4.25;64.48;101242.55;1722638;82;21494;-72
2022/11/01 05:59:36;;;;;;;11.65;5.53;;;;;;;4.33;64.39;101247.66;1728010;82;21012;-72
2022/11/01 06:02:03;;;;;;;9.15;4.72;;;;;;;4.40;64.21;101251.13;1713549;82;20953;-73
2022/11/01 06:04:29;;;;;;;14.65;5.47;;;;;;;4.48;63.96;101248.83;1708035;82;21171;-73
2022/11/01 06:06:58;;;;;;;10.93;4.95;;;;;;;4.55;63.71;101257.59;1712171;82;21500;-73
2022/11/01 06:09:25;;;;;;;9.63;5.37;;;;;;;4.57;63.36;101256.87;1706410;82;21092;-73
2022/11/01 06:11:52;;;;;;;10.78;5.03;;;;;;;4.65;63.35;101254.05;1715602;82;21049;-72
2022/11/01 06:14:19;;;;;;;8.13;4.65;;;;;;;4.71;63.14;101247.16;1707262;82;21059;-72
2022/11/01 06:16:46;;;;;;;10.25;5.33;;;;;;;4.78;62.97;101249.30;1705508;84;21270;-72
2022/11/01 06:19:12;;;;;;;11.70;5.75;;;;;;;4.84;62.80;101249.81;1706967;82;21491;-72
2022/11/01 06:21:41;;;;;;;9.13;4.85;;;;;;;4.93;62.70;101255.71;1706606;82;21048;-71
2022/11/01 06:24:10;;;;;;;9.43;5.15;;;;;;;5.04;62.57;101254.31;1725965;82;21049;-71
2022/11/01 06:26:37;;;;;;;10.72;5.28;;;;;;;5.14;62.46;101250.23;1733695;82;21079;-70
2022/11/01 06:29:04;;;;;;;9.80;5.42;;;;;;;5.26;62.34;101250.42;1707478;82;21154;-71
2022/11/01 06:31:31;;;;;;;11.08;4.83;;;;;;;5.35;61.97;101251.84;1707969;82;20973;-71
2022/11/01 06:33:57;;;;;;;9.73;5.10;;;;;;;5.41;61.77;101243.08;1706871;82;21028;-71
2022/11/01 06:36:24;;;;;;;12.65;5.35;;;;;;;5.50;61.45;101240.23;1707881;82;21388;-72
2022/11/01 06:38:51;;;;;;;12.43;5.58;;;;;;;5.62;61.42;101247.84;1709316;82;21150;-72
2022/11/01 06:41:18;;;;;;;10.30;5.62;;;;;;;5.72;61.05;101245.56;1708063;82;21890;-73
2022/11/01 06:43:48;;;;;;;9.65;5.35;;;;;;;5.84;60.84;101244.43;1709449;82;21123;-71
2022/11/01 06:46:15;;;;;;;9.33;4.60;;;;;;;5.94;60.74;101246.67;1705347;82;21043;-71
2022/11/01 06:48:42;;;;;;;10.53;5.40;;;;;;;6.03;60.43;101246.75;1706916;82;21024;-71
2022/11/01 06:51:09;;;;;;;10.08;5.28;;;;;;;6.08;60.07;101243.75;1710443;82;21043;-71
2022/11/01 06:53:36;;;;;;;9.25;5.60;;;;;;;6.18;59.82;101250.45;1705457;84;21157;-71
2022/11/01 06:56:03;;;;;;;9.58;4.67;;;;;;;6.27;59.79;101250.00;1712749;82;20981;-71
2022/11/01 06:58:30;;;;;;;11.05;6.05;;;;;;;6.38;59.36;101251.69;1706837;82;20996;-71
2022/11/01 07:00:56;;;;;;;12.23;5.85;;;;;;;6.46;59.05;101253.59;1710835;82;21051;-72
2022/11/01 07:03:24;;;;;;;8.78;5.12;;;;;;;6.55;58.93;101248.34;1706185;82;21004;-71
2022/11/01 07:05:51;;;;;;;13.15;5.97;;;;;;;6.67;58.75;101251.11;1718857;82;21169;-73
2022/11/01 07:08:18;;;;;;;11.53;5.30;;;;;;;6.74;58.41;101247.09;1685968;84;21174;-72
2022/11/01 07:10:45;;;;;;;11.28;5.33;;;;;;;6.78;58.27;101243.00;1706397;82;21134;-72
2022/11/01 07:13:12;;;;;;;9.48;5.00;;;;;;;6.81;58.02;101236.74;1715418;82;21060;-72
2022/11/01 07:15:40;;;;;;;9.45;5.37;;;;;;;6.86;57.84;101236.60;1712580;82;21017;-72
2022/11/01 07:18:08;;;;;;;10.48;5.70;;;;;;;6.91;57.61;101236.75;1731956;82;21574;-73
2022/11/01 07:20:42;;;;;;;11.33;5.25;;;;;;;6.95;57.32;101241.95;1725950;82;21040;-73
2022/11/01 07:23:14;;;;;;;9.85;5.45;;;;;;;7.04;57.38;101239.30;1727901;82;20981;-73
2022/11/01 07:25:42;;;;;;;8.73;4.75;;;;;;;7.19;57.23;101243.79;1728393;82;20994;-73
2022/11/01 07:28:09;;;;;;;12.55;5.83;;;;;;;7.27;56.78;101236.05;1718049;83;21028;-72
2022/11/01 07:30:36;;;;;;;10.30;5.70;;;;;;;7.34;56.61;101243.96;1706354;82;22124;-71
2022/11/01 07:33:03;;;;;;;19.90;5.45;;;;;;;7.42;56.29;101237.86;1706109;84;21416;-72
2022/11/01 07:35:30;;;;;;;13.88;5.75;;;;;;;7.56;55.94;101233.74;1706450;82;21613;-71
2022/11/01 07:37:59;;;;;;;10.98;5.53;;;;;;;7.55;55.07;101234.27;1722111;82;21144;-72
2022/11/01 07:40:27;;;;;;;8.85;4.50;;;;;;;7.55;55.06;101239.58;1721415;82;22240;-72
2022/11/01 07:42:58;;;;;;;11.65;5.20;;;;;;;7.56;54.93;101237.20;1705906;83;21782;-72
2022/11/01 07:45:28;;;;;;;11.00;5.90;;;;;;;7.64;55.15;101232.95;1671287;85;21118;-71
2022/11/01 07:48:01;;;;;;;9.93;4.85;;;;;;;7.80;54.91;101232.05;1689167;84;21024;-72
2022/11/01 07:50:30;;;;;;;12.50;5.67;;;;;;;7.94;54.67;101230.88;1672765;84;21107;-72
2022/11/01 07:53:08;;;;;;;10.90;5.40;;;;;;;8.02;54.25;101223.91;1684896;84;21615;-73
2022/11/01 07:55:35;;;;;;;10.82;5.47;;;;;;;8.12;53.86;101222.05;1673267;84;21267;-72
2022/11/01 07:58:04;;;;;;;20.45;7.15;;;;;;;8.23;53.57;101220.80;1683371;84;21036;-73
2022/11/01 08:00:31;;;;;;;10.50;5.20;;;;;;;8.33;53.47;101221.59;1673082;84;21051;-73
2022/11/01 08:03:03;;;;;;;9.50;5.40;;;;;;;8.41;52.88;101226.61;1691410;84;22456;-73
2022/11/01 08:05:29;;;;;;;22.02;7.10;;;;;;;8.49;52.96;101228.16;1673566;84;21024;-73
2022/11/01 08:07:56;;;;;;;16.75;6.70;;;;;;;8.63;52.90;101226.12;1673491;84;21554;-72
2022/11/01 08:10:23;;;;;;;43.98;8.25;;;;;;;8.78;52.73;101224.34;1678206;84;21095;-71
2022/11/01 08:12:50;;;;;;;43.58;9.43;;;;;;;8.94;52.45;101226.34;1678784;84;21031;-72
2022/11/01 08:15:17;;;;;;;15.98;6.12;;;;;;;9.05;51.98;101222.06;1668560;84;21488;-72
2022/11/01 08:17:44;;;;;;;20.97;6.72;;;;;;;9.17;51.64;101218.90;1667403;86;21004;-73
2022/11/01 08:20:12;;;;;;;38.10;10.15;;;;;;;9.28;51.26;101218.11;1673389;84;21131;-72
2022/11/01 08:22:39;;;;;;;17.05;6.60;;;;;;;9.35;50.81;101215.32;1686701;84;21018;-72
2022/11/01 08:25:07;;;;;;;40.92;9.20;;;;;;;9.43;50.72;101204.29;1674758;84;21538;-72
2022/11/01 08:27:35;;;;;;;22.05;7.58;;;;;;;9.54;50.37;101205.31;1669982;84;21122;-73
2022/11/01 08:30:03;;;;;;;46.08;10.53;;;;;;;9.63;50.16;101202.58;1667219;86;21100;-73
2022/11/01 08:32:30;;;;;;;41.30;9.13;;;;;;;9.74;49.93;101200.94;1667349;86;22184;-71
2022/11/01 08:34:56;;;;;;;41.85;9.38;;;;;;;9.86;49.50;101205.73;1667171;86;21168;-71
2022/11/01 08:37:23;;;;;;;14.18;5.90;;;;;;;9.97;49.43;101204.90;1667363;86;20993;-71
2022/11/01 08:39:50;;;;;;;11.73;5.78;;;;;;;10.07;49.03;101200.29;1667208;86;21601;-71
2022/11/01 08:42:16;;;;;;;22.52;7.55;;;;;;;10.18;48.49;101198.09;1670292;84;21112;-71
2022/11/01 08:44:43;;;;;;;13.32;6.28;;;;;;;10.25;48.42;101201.42;1668131;84;21236;-71
2022/11/01 08:47:10;;;;;;;12.40;5.75;;;;;;;10.34;48.02;101199.22;1667362;84;21028;-71
2022/11/01 08:49:37;;;;;;;12.73;6.42;;;;;;;10.40;47.89;101194.26;1667068;86;21483;-71
2022/11/01 08:52:04;;;;;;;13.88;6.45;;;;;;;10.42;47.46;101190.00;1672334;84;21615;-71
2022/11/01 08:54:33;;;;;;;14.73;6.42;;;;;;;10.45;47.31;101182.84;1695317;84;21040;-71
2022/11/01 08:57:01;;;;;;;32.55;9.40;;;;;;;10.52;47.08;101187.50;1695575;84;21107;-71
2022/11/01 08:59:28;;;;;;;21.30;7.03;;;;;;;10.56;46.94;101182.79;1695335;84;21103;-71
2022/11/01 09:01:54;;;;;;;19.30;6.50;;;;;;;10.63;47.04;101180.46;1695439;84;21111;-72
2022/11/01 09:04:21;;;;;;;12.90;5.67;;;;;;;10.75;47.12;101175.86;1695652;84;21008;-71
2022/11/01 09:06:48;;;;;;;9.55;5.05;;;;;;;10.84;46.32;101177.08;1695515;84;21534;-71
2022/11/01 09:09:15;;;;;;;14.43;5.35;;;;;;;10.95;46.08;101173.50;1695390;84;21317;-71
2022/11/01 09:11:42;;;;;;;11.97;5.80;;;;;;;11.11;45.34;101177.75;1695342;84;20976;-71
2022/11/01 09:14:09;;;;;;;9.58;5.08;;;;;;;11.22;44.49;101166.97;1695412;84;21103;-71
2022/11/01 09:16:36;;;;;;;12.45;5.20;;;;;;;11.34;44.06;101165.52;1665965;84;21004;-72
2022/11/01 09:19:04;;;;;;;20.12;5.47;;;;;;;11.44;43.76;101166.98;1695679;84;20972;-70
2022/11/01 09:21:32;;;;;;;17.27;5.47;;;;;;;11.57;43.91;101167.68;1695359;84;21004;-71
2022/11/01 09:23:59;;;;;;;33.05;8.23;;;;;;;11.71;43.66;101168.92;1695558;84;21099;-72
2022/11/01 09:26:26;;;;;;;10.18;5.20;;;;;;;11.83;43.16;101157.56;1695464;84;21232;-71
2022/11/01 09:28:57;;;;;;;21.12;7.53;;;;;;;11.93;42.23;101158.23;1695650;84;21455;-72
2022/11/01 09:31:24;;;;;;;13.30;6.08;;;;;;;12.03;41.76;101150.84;1695556;84;21098;-71
2022/11/01 09:33:56;;;;;;;13.55;5.28;;;;;;;12.11;41.41;101151.72;1695819;84;21164;-71
2022/11/01 09:36:23;;;;;;;15.90;6.40;;;;;;;12.16;41.25;101149.11;1695685;84;21048;-71
2022/11/01 09:38:50;;;;;;;11.45;5.40;;;;;;;12.19;41.36;101142.72;1695608;84;20991;-71
2022/11/01 09:41:41;;;;;;;12.68;5.83;;;;;;;12.23;41.09;101139.00;1684061;84;21040;-72
2022/11/01 09:44:18;;;;;;;8.33;4.30;;;;;;;12.30;40.60;101144.95;1673599;84;21068;-71
2022/11/01 09:46:49;;;;;;;10.47;5.03;;;;;;;12.36;40.16;101142.59;1667940;84;21813;-72
2022/11/01 09:49:23;;;;;;;14.30;5.55;;;;;;;12.39;40.09;101143.43;1668683;84;22268;-72
2022/11/01 09:51:50;;;;;;;17.57;6.53;;;;;;;12.40;40.16;101139.71;1687494;84;21127;-70
2022/11/01 09:54:21;;;;;;;10.18;5.50;;;;;;;12.47;40.17;101146.70;1695078;84;21067;-71
2022/11/01 09:57:18;;;;;;;10.95;5.33;;;;;;;12.51;39.97;101139.26;1695795;84;21076;-70
2022/11/01 10:00:12;;;;;;;17.85;5.25;;;;;;;12.57;40.10;101141.42;1694946;84;21253;-70
2022/11/01 10:03:22;;;;;;;11.50;5.60;;;;;;;12.64;39.81;101128.11;1695592;84;21653;-71
2022/11/01 10:06:21;;;;;;;12.63;6.37;;;;;;;12.68;39.39;101125.72;1693101;84;21247;-70
2022/11/01 10:09:16;;;;;;;10.55;4.65;;;;;;;12.71;39.50;101129.23;1695412;84;21394;-71
2022/11/01 10:12:25;;;;;;;12.17;5.27;;;;;;;12.76;39.56;101122.55;1695649;83;21617;-71
2022/11/01 10:15:15;;;;;;;9.33;5.00;;;;;;;12.73;39.33;101123.59;1606376;88;22044;-70
2022/11/01 10:17:47;;;;;;;11.18;4.95;;;;;;;12.70;40.02;101116.91;1606165;87;21298;-70
2022/11/01 10:20:15;;;;;;;11.33;4.80;;;;;;;12.81;39.73;101117.77;1639242;86;21531;-70
2022/11/01 10:22:48;;;;;;;7.20;4.37;;;;;;;12.85;38.98;101112.97;1667760;86;21044;-70
2022/11/01 10:25:24;;;;;;;12.23;5.00;;;;;;;12.79;38.52;101115.33;1668538;84;21824;-70
2022/11/01 10:28:05;;;;;;;12.93;4.57;;;;;;;12.73;39.02;101116.89;1706131;83;21873;-72
2022/11/01 10:30:42;;;;;;;55.63;9.00;;;;;;;12.75;39.30;101108.88;1706258;84;21241;-71
2022/11/01 10:33:33;;;;;;;15.03;5.53;;;;;;;12.82;39.35;101100.08;1703659;83;21195;-71
2022/11/01 10:36:17;;;;;;;11.70;4.47;;;;;;;12.91;39.05;101094.51;1734497;82;21768;-71
2022/11/01 10:38:54;;;;;;;9.30;4.13;;;;;;;13.01;38.73;101084.91;1735516;82;21005;-72
2022/11/01 10:41:36;;;;;;;7.23;3.83;;;;;;;13.08;38.20;101077.44;1709946;81;21758;-72
2022/11/01 10:44:06;;;;;;;11.77;4.20;;;;;;;13.09;37.69;101077.70;1705698;84;21322;-70
2022/11/01 10:46:39;;;;;;;18.70;4.83;;;;;;;13.09;38.38;101069.12;1686391;84;21132;-70
2022/11/01 10:49:13;;;;;;;7.33;3.27;;;;;;;13.16;37.35;101062.17;1708648;82;21327;-70
2022/11/01 10:51:38;;;;;;;7.53;3.03;;;;;;;13.24;37.14;101064.91;1707362;82;21204;-72
2022/11/01 10:54:05;;;;;;;15.13;3.93;;;;;;;13.30;36.05;101060.67;1712399;82;21281;-73
2022/11/01 10:56:38;;;;;;;55.73;8.83;;;;;;;13.34;36.26;101060.95;1704008;83;21765;-71
2022/11/01 10:59:42;;;;;;;11.83;3.80;;;;;;;13.41;36.08;101056.69;1707105;82;21160;-71
2022/11/01 11:02:34;;;;;;;6.08;3.35;;;;;;;13.47;36.03;101061.80;1706354;84;21217;-72
2022/11/01 11:05:02;;;;;;;8.83;3.00;;;;;;;13.52;35.72;101061.83;1735267;82;21043;-72
2022/11/01 11:07:31;;;;;;;7.33;3.73;;;;;;;13.55;35.70;101060.47;1713707;82;21321;-71
2022/11/01 11:10:00;;;;;;;8.27;3.27;;;;;;;13.60;35.73;101055.13;1707448;82;21301;-72
2022/11/01 11:12:26;;;;;;;7.73;3.20;;;;;;;13.66;35.04;101051.94;1706230;84;21365;-71
2022/11/01 11:15:01;;;;;;;41.67;6.77;;;;;;;13.70;35.12;101049.78;1706127;84;21284;-71
2022/11/01 11:17:32;;;;;;;29.20;5.03;;;;;;;13.73;34.89;101055.16;1708142;82;21195;-72
2022/11/01 11:20:03;;;;;;;9.23;3.40;;;;;;;13.74;34.55;101050.86;1706205;84;21535;-71
2022/11/01 11:22:30;;;;;;;;;;;;;;;13.80;34.30;101053.83;1709169;82;21005;-71
2022/11/01 11:24:57;;;;;;;5.83;2.70;;;;;;;13.87;34.30;101050.08;1706551;82;20143;-72
2022/11/01 11:27:29;;;;;;;8.57;2.73;;;;;;;13.94;34.20;101053.30;1729370;82;21257;-72
2022/11/01 11:30:05;;;;;;;14.00;3.35;;;;;;;13.98;34.13;101051.69;1735550;82;21605;-72
2022/11/01 11:32:39;;;;;;;26.43;5.73;;;;;;;13.98;34.22;101052.49;1718459;82;21158;-72
2022/11/01 11:35:20;;;;;;;8.57;3.30;;;;;;;14.01;34.24;101056.53;1705583;82;21292;-71
2022/11/01 11:37:58;;;;;;;7.50;2.83;;;;;;;14.05;33.95;101061.66;1694019;82;21258;-71
2022/11/01 11:40:26;;;;;;;7.77;3.13;;;;;;;14.10;33.57;101058.16;1705959;83;21112;-71
2022/11/01 11:42:55;;;;;;;10.23;3.70;;;;;;;14.12;33.75;101062.73;1707250;82;21127;-71
2022/11/01 11:45:28;;;;;;;6.70;2.60;;;;;;;14.16;33.63;101067.84;1685822;84;21232;-71
2022/11/01 11:48:14;;;;;;;14.73;3.83;;;;;;;14.20;33.10;101064.33;1710993;82;21165;-71
2022/11/01 11:50:41;;;;;;;7.57;3.00;;;;;;;14.21;33.33;101064.59;1707212;82;21078;-70